Aeroporto :
LOGIN :

Iscrizione | Disclaimer

   EN    FR    IT 

 










Sommario :    VFR   VFR Marginale   IFR   IFR Intensivo   IFR Molto Intensivo
Visibilità : 
Base nubi : 
>= 8 km
>= 3000ft
5 / 8 km
1000 / 3000 ft
1500m / 5 km
500 / 1000 ft
800 / 1500m
200 / 500 ft
< 800m
< 200 ft
Simboli :   Temporali  Nebbia  Neve Forte  Precipitazioni Forti  Vento > 20 kt
SIGMETs :   Varie  Temporali  Ghiacco  Turbolenza  Onda orograficha  Ceneri Vulcaniche






- Altitudine del aeroporto : 359 ft
- Codice IATA : DEB


LHDC - Debrecen

ULTIMO METAR :
  • 162315Z AUTO 06004KT 7000 NCD 08/08 Q1018

METARs OBSOLETI :
  • 162245Z AUTO 05005KT 7000 NCD 08/07 Q1018 NOSIG
  • 162215Z AUTO 06005KT 7000 NCD 09/08 Q1018 NOSIG
  • 162145Z AUTO 06004KT 7000 NCD 09/08 Q1018 NOSIG
  • 162115Z AUTO 06003KT 7000 NCD 10/09 Q1018 NOSIG
  • 162045Z AUTO 06004KT 7000 NCD 10/09 Q1018 NOSIG

TAF TAF LHDC
Valido dal 16 a 21 ore il 17 a 06 ore UTC


162015Z 1621/1706 04005KT 5000 BR NSC
TEMPO 1700/1706 3000 BR SCT002



MetMap, La meteo Aeronautica in un colpo d'occhio ! - Copyright ORBIFLY Dicembre 2007 - Disclaimer

ORBIFLY MET'MAP TEAM :

Programmazione e sviluppo : Alexandra Zaïnal
Concezione e sviluppo : Baudouin d'Aumeries
Co-Programmazione e sviluppo : Marc-Olivier Méhu
Supporto tecnico e logistico : Manuel Goepfert
Aiuto per la traduzione : Arnaldo La Scala

Contatto : metmap@orbifly.com




FONTI E CREDITI :

   NOAA